Thunder radar more information blitzortung!


Radar de pluja more information rain snow radar


Visita la nostra xarxa de llocs de meteo:

Template documentation
and downloads

And another site



No particular awareness of the weather is required.    There are no Weather-warnings

Pagina Historial Weather Underground text

Diari Resum Novembre 14, 2017 Unitats:  Mètric    Imperial   Tant
« Previous Dia
SegĂźent Dia »
Diari Setmana Mensual Anual Personalitzada
  Maxima: Minima: Media:
Temperatura: -17.8 °C -16.6 °C -12.9 °C
Punt de rosada: -17.8 °C -23.8 °C -20.7 °C
Humitat: Humidity % 25 % 37 %
Wind Speed: 0 km/h 0 km/h 5.5 km/h
RĂ fegues de vent: 0 km/h - -
Vent:- - SSW
Pression baro: 0 hPa 34361.1 hPa -
Precipitacions: 0 mm    
Historical Graphs
 
 
Dades de taula per Novembre 14, 2017
Temps Temperatura Punt de rosada Pression baro Vent Wind Speed RĂ fegues de vent Humitat Rainfall Rate (Hourly)
-17.8 °C -17.8 °C 0 hPa Calm     Humidity % 0 mm
00:00 -13.3 °C -23.8 °C 34395 hPa WSW 7.7 km/h 15.6 km/h 25 % 0 mm
00:05 -13.3 °C -23.8 °C 34361.1 hPa WSW 12.9 km/h 25.9 km/h 25 % 0 mm
00:10 -13.3 °C -23.8 °C 34361.1 hPa West 7.7 km/h 20.8 km/h 25 % 0 mm
00:20 -15.2 °C -23.7 °C 34395 hPa WSW 2.6 km/h 7.7 km/h 32 % 0 mm
00:30 -15.3 °C -23.6 °C 34395 hPa West 2.6 km/h 7.7 km/h 33 % 0 mm
00:40 -15.4 °C -23.7 °C 34395 hPa West 2.6 km/h 5.1 km/h 33 % 0 mm
00:50 -15.5 °C -23.8 °C 34395 hPa NW 2.6 km/h 2.6 km/h 33 % 0 mm
01:00 -15.6 °C -23.8 °C 34428.8 hPa Calm   2.6 km/h 33 % 0 mm
01:10 -15.7 °C -23.7 °C 34428.8 hPa NNW 2.6 km/h 2.6 km/h 34 % 0 mm
01:20 -15.7 °C -23.7 °C 34428.8 hPa Calm   2.6 km/h 34 % 0 mm
01:30 -15.8 °C -23.8 °C 34462.7 hPa Calm   2.6 km/h 34 % 0 mm
01:40 -15.9 °C -23.7 °C 34462.7 hPa Calm   2.6 km/h 35 % 0 mm
01:50 -16 °C -23.8 °C 34462.7 hPa West 2.6 km/h 5.1 km/h 35 % 0 mm
02:00 -15.8 °C -23.4 °C 34462.7 hPa West 2.6 km/h 2.6 km/h 36 % 0 mm
02:10 -15.6 °C -23.2 °C 34462.7 hPa North 2.6 km/h 5.1 km/h 36 % 0 mm
02:20 -15.4 °C -22.9 °C 34462.7 hPa WNW 2.6 km/h 2.6 km/h 37 % 0 mm
02:30 -15.1 °C -22.6 °C 34462.7 hPa West 2.6 km/h 5.1 km/h 37 % 0 mm
02:40 -14.9 °C -22.4 °C 34462.7 hPa WNW 2.6 km/h 5.1 km/h 37 % 0 mm
03:00 -14.4 °C -21.8 °C 34462.7 hPa NW 2.6 km/h 7.7 km/h 38 % 0 mm
03:10 -14.2 °C -21.6 °C 34496.6 hPa NW 5.1 km/h 7.7 km/h 38 % 0 mm
03:20 -14.1 °C -21.5 °C 34496.6 hPa NE 5.1 km/h 5.1 km/h 38 % 0 mm
03:30 -13.9 °C -21.3 °C 34496.6 hPa NE 5.1 km/h 12.9 km/h 38 % 0 mm
09:37 -13.7 °C -21.2 °C 34496.6 hPa ESE 6 km/h 6 km/h 38 % 0 mm
09:38 -13.7 °C -21.1 °C 34496.6 hPa East 3.1 km/h   38 % 0 mm
09:43 -13.7 °C -21.1 °C 34496.6 hPa ENE 9 km/h 9 km/h 38 % 0 mm
09:48 -13.5 °C -20.9 °C 34496.6 hPa West 6 km/h 6 km/h 38 % 0 mm
09:53 -13.4 °C -20.9 °C 34533.8 hPa NNE 11.9 km/h 11.9 km/h 38 % 0 mm
09:58 -13.7 °C -21.3 °C 34533.8 hPa ENE 11.9 km/h 11.9 km/h 37 % 0 mm
10:03 -13.4 °C -20.9 °C 34533.8 hPa NNE 9.8 km/h 9.8 km/h 38 % 0 mm
10:08 -13.2 °C -20.7 °C 34496.6 hPa ENE 6 km/h 6 km/h 38 % 0 mm
10:13 -13.2 °C -20.9 °C 34496.6 hPa NNE 9 km/h 9 km/h 37 % 0 mm
10:18 -13.2 °C -20.9 °C 34496.6 hPa WNW 9 km/h 9 km/h 37 % 0 mm
10:23 -13 °C -20.5 °C 34496.6 hPa North 11.9 km/h 11.9 km/h 38 % 0 mm
10:28 -12.9 °C -20.7 °C 34496.6 hPa NW 6 km/h 6 km/h 37 % 0 mm
10:33 -12.9 °C -20.7 °C 34496.6 hPa NNE 15 km/h 15 km/h 37 % 0 mm
10:38 -13.1 °C -20.8 °C 34496.6 hPa NNE 9 km/h 9 km/h 37 % 0 mm
10:43 -12.7 °C -20.4 °C 34496.6 hPa SSE 6 km/h   37 % 0 mm
10:48 -12.7 °C -20.4 °C 34496.6 hPa NE 16.1 km/h 16.1 km/h 37 % 0 mm
10:53 -12.8 °C -20.5 °C 34533.8 hPa NNE 15 km/h 15 km/h 37 % 0 mm
10:58 -12.6 °C -20.4 °C 34533.8 hPa NNE 10.3 km/h 10.3 km/h 37 % 0 mm
11:03 -12.6 °C -20.4 °C 34533.8 hPa North 11.9 km/h 11.9 km/h 37 % 0 mm
11:08 -12.5 °C -20.3 °C 34533.8 hPa NE 11.9 km/h 11.9 km/h 37 % 0 mm
11:13 -12.2 °C -20.1 °C 34533.8 hPa ESE 6 km/h 6 km/h 37 % 0 mm
11:18 -12.1 °C -19.9 °C 34533.8 hPa ENE 9 km/h 9 km/h 37 % 0 mm
11:23 -12.3 °C -20.3 °C 34533.8 hPa NE 15 km/h 15 km/h 36 % 0 mm
11:28 -12.3 °C -20.3 °C 34533.8 hPa NNE 9 km/h 9 km/h 36 % 0 mm
11:33 -12 °C -19.8 °C 34533.8 hPa WNW 6 km/h 6 km/h 37 % 0 mm
11:38 -11.8 °C -19.9 °C 34533.8 hPa East 6 km/h 6 km/h 36 % 0 mm
11:43 -11.7 °C -19.8 °C 34533.8 hPa NE 6.3 km/h 6.3 km/h 36 % 0 mm
11:48 -11.7 °C -19.7 °C 34533.8 hPa NNW 9 km/h 9 km/h 36 % 0 mm
11:53 -11.7 °C -19.7 °C 34496.6 hPa SW 6 km/h 6 km/h 36 % 0 mm
11:58 -11.5 °C -19.6 °C 34496.6 hPa ENE 6 km/h 6 km/h 36 % 0 mm
12:03 -11.3 °C -19.4 °C 34496.6 hPa North 9 km/h 9 km/h 36 % 0 mm
12:08 -11.4 °C -19.6 °C 34496.6 hPa East 12.7 km/h 12.7 km/h 36 % 0 mm
12:13 -11.4 °C -19.6 °C 34496.6 hPa NE 11.9 km/h 11.9 km/h 36 % 0 mm
12:18 -11.3 °C -19.4 °C 34496.6 hPa NNE 6 km/h 6 km/h 36 % 0 mm
12:23 -11.3 °C -19.6 °C 34496.6 hPa East 6 km/h 6 km/h 35 % 0 mm
12:28 -11.1 °C -19.4 °C 34496.6 hPa SSW 6 km/h 6 km/h 35 % 0 mm
12:33 -11.1 °C -19.2 °C 34496.6 hPa NE 9 km/h 9 km/h 36 % 0 mm
12:38 -11.1 °C -19.4 °C 34462.7 hPa NE 9 km/h 9 km/h 35 % 0 mm
12:43 -11 °C -19.3 °C 34462.7 hPa NE 9 km/h 9 km/h 35 % 0 mm
12:48 -10.8 °C -19.2 °C 34462.7 hPa ENE 7.6 km/h 7.6 km/h 35 % 0 mm
12:53 -11 °C -19.3 °C 34462.7 hPa ENE 11.1 km/h 11.1 km/h 35 % 0 mm
12:58 -10.9 °C -19.3 °C 34462.7 hPa East 9 km/h 9 km/h 35 % 0 mm
13:03 -10.8 °C -19.2 °C 34462.7 hPa ESE 6 km/h 6 km/h 35 % 0 mm
13:08 -10.7 °C -19.1 °C 34462.7 hPa ENE 6.3 km/h 6.3 km/h 35 % 0 mm
13:13 -10.4 °C -18.8 °C 34462.7 hPa SE 6.3 km/h 6.3 km/h 35 % 0 mm
13:18 -10.3 °C -18.6 °C 34462.7 hPa West 9 km/h 9 km/h 36 % 0 mm
13:23 -10.2 °C -18.6 °C 34462.7 hPa SW 11.9 km/h 11.9 km/h 35 % 0 mm
13:28 -10.2 °C -18.9 °C 34462.7 hPa East 9 km/h 9 km/h 34 % 0 mm
13:33 -10.2 °C -18.6 °C 34462.7 hPa NW 7.6 km/h 7.6 km/h 35 % 0 mm
13:38 -10.2 °C -18.9 °C 34496.6 hPa NW 6 km/h 6 km/h 34 % 0 mm
13:43 -10.3 °C -18.9 °C 34496.6 hPa NW 6.8 km/h 6.8 km/h 34 % 0 mm
13:48 -10.2 °C -18.9 °C 34496.6 hPa SSE 6 km/h 6 km/h 34 % 0 mm
13:53 -10.2 °C -18.9 °C 34462.7 hPa WSW 9 km/h 9 km/h 34 % 0 mm
13:58 -10.2 °C -18.9 °C 34462.7 hPa SW 6 km/h 6 km/h 34 % 0 mm
14:03 -10.3 °C -18.9 °C 34462.7 hPa NNE 6 km/h 6 km/h 34 % 0 mm
14:08 -10.2 °C -18.9 °C 34462.7 hPa SE 6.3 km/h 6.3 km/h 34 % 0 mm
14:13 -10.3 °C -19.2 °C 34462.7 hPa ESE 11.9 km/h 11.9 km/h 33 % 0 mm
14:18 -10.3 °C -19.2 °C 34462.7 hPa ESE 15 km/h 15 km/h 33 % 0 mm
14:23 -10.2 °C -19.1 °C 34462.7 hPa SSW 9 km/h 9 km/h 33 % 0 mm
14:28 -10.1 °C -19 °C 34462.7 hPa West 6.3 km/h 6.3 km/h 33 % 0 mm
14:33 -9.9 °C -18.8 °C 34462.7 hPa SW 11.9 km/h 11.9 km/h 33 % 0 mm
14:38 -10 °C -18.9 °C 34462.7 hPa NE 15 km/h 15.3 km/h 33 % 0 mm
14:43 -10 °C -18.9 °C 34462.7 hPa ESE 11.9 km/h 11.9 km/h 33 % 0 mm
14:45 -9.8 °C -18.6 °C 34462.7 hPa NW 9 km/h 9 km/h 34 % 0 mm
14:50 -9.7 °C -18.4 °C 34462.7 hPa WNW 17.9 km/h 17.9 km/h 34 % 0 mm
14:55 -9.7 °C -18.7 °C 34462.7 hPa WSW 9 km/h 9 km/h 33 % 0 mm
15:00 -9.7 °C -18.6 °C 34462.7 hPa SW 6 km/h 6 km/h 33 % 0 mm
15:05 -9.6 °C -18.5 °C 34462.7 hPa WNW 9 km/h 9 km/h 33 % 0 mm
15:10 -9.5 °C -18.5 °C 34462.7 hPa SW 11.9 km/h 11.9 km/h 33 % 0 mm
15:15 -9.4 °C -18.4 °C 34462.7 hPa SW 9 km/h 9 km/h 33 % 0 mm
15:20 -9.2 °C -18.2 °C 34462.7 hPa SSE 9 km/h 9 km/h 33 % 0 mm
15:25 -9.3 °C -18.3 °C 34462.7 hPa SW 6 km/h 6 km/h 33 % 0 mm
15:30 -9.2 °C -18.2 °C 34462.7 hPa WSW 9 km/h 9 km/h 33 % 0 mm
15:35 -9.1 °C -18.1 °C 34462.7 hPa West 9 km/h 9 km/h 33 % 0 mm
15:40 -9.1 °C -18.1 °C 34462.7 hPa SSE 9 km/h 9 km/h 33 % 0 mm
15:45 -9.1 °C -18.1 °C 34462.7 hPa WSW 9 km/h 9 km/h 33 % 0 mm
15:50 -9.2 °C -18.4 °C 34462.7 hPa SW 9 km/h 9 km/h 32 % 0 mm
15:55 -9.2 °C -18.4 °C 34462.7 hPa WSW 6 km/h 6 km/h 32 % 0 mm
16:00 -9.3 °C -18.6 °C 34462.7 hPa NW 11.9 km/h 11.9 km/h 32 % 0 mm
16:05 -9.3 °C -18.6 °C 34462.7 hPa SW 11.9 km/h 11.9 km/h 32 % 0 mm
16:10 -9.3 °C -18.5 °C 34462.7 hPa NW 6 km/h 6 km/h 32 % 0 mm
16:15 -9.2 °C -18.4 °C 34462.7 hPa NW 6 km/h 6 km/h 32 % 0 mm
16:20 -9.3 °C -18.5 °C 34462.7 hPa WSW 6 km/h 6 km/h 32 % 0 mm
16:25 -9.3 °C -18.6 °C 34462.7 hPa NNE 9 km/h 9 km/h 32 % 0 mm
16:30 -9.5 °C -18.7 °C 34462.7 hPa SSW 6 km/h 6 km/h 32 % 0 mm
16:35 -9.6 °C -18.8 °C 34462.7 hPa West 6 km/h 6 km/h 32 % 0 mm
16:40 -9.7 °C -18.8 °C 34462.7 hPa WSW 8 km/h 8 km/h 32 % 0 mm
16:45 -9.8 °C -18.9 °C 34462.7 hPa WSW 6 km/h 6 km/h 32 % 0 mm
16:50 -9.9 °C -19.1 °C 34462.7 hPa WNW 6 km/h 6 km/h 32 % 0 mm
16:55 -10.1 °C -19.2 °C 34462.7 hPa SW 6 km/h   32 % 0 mm
17:00 -10.1 °C -19.2 °C 34462.7 hPa NNW 3.7 km/h 3.7 km/h 32 % 0 mm
17:01 -10.2 °C -19.3 °C 34462.7 hPa NNW 6 km/h 6 km/h 32 % 0 mm
17:06 -10.2 °C -19.3 °C 34496.6 hPa West 11.9 km/h 11.9 km/h 32 % 0 mm
17:11 -10.4 °C -19.6 °C 34496.6 hPa West 9 km/h 9 km/h 32 % 0 mm
17:16 -10.6 °C -19.7 °C 34496.6 hPa WNW 6 km/h 6 km/h 32 % 0 mm
17:21 -10.8 °C -19.8 °C 34496.6 hPa West 9 km/h 9 km/h 32 % 0 mm
17:26 -10.9 °C -19.9 °C 34496.6 hPa West 3.1 km/h 3.1 km/h 32 % 0 mm
17:31 -11.1 °C -20.1 °C 34496.6 hPa WSW 6.3 km/h 6.3 km/h 32 % 0 mm
17:36 -11.2 °C -20.2 °C 34496.6 hPa NW 6 km/h 6 km/h 32 % 0 mm
17:41 -11.3 °C -20.3 °C 34496.6 hPa WNW 6 km/h 6 km/h 32 % 0 mm
17:46 -11.4 °C -20.4 °C 34496.6 hPa WNW 6 km/h 6 km/h 32 % 0 mm
17:51 -11.5 °C -20.4 °C 34496.6 hPa WNW 3.1 km/h 3.1 km/h 32 % 0 mm
17:56 -11.6 °C -20.6 °C 34496.6 hPa NNW 6.3 km/h 6.3 km/h 32 % 0 mm
18:01 -11.7 °C -20.6 °C 34496.6 hPa West 6 km/h 6 km/h 32 % 0 mm
18:06 -11.8 °C -20.7 °C 34496.6 hPa NE 6 km/h 6 km/h 32 % 0 mm
18:11 -11.9 °C -20.8 °C 34496.6 hPa NE 6 km/h 6 km/h 32 % 0 mm
18:16 -12.1 °C -20.9 °C 34496.6 hPa NNE 6 km/h 6 km/h 32 % 0 mm
18:21 -12.2 °C -21.1 °C 34496.6 hPa NNW 6 km/h 6 km/h 32 % 0 mm
18:26 -12.3 °C -21.2 °C 34496.6 hPa West 3.1 km/h 3.1 km/h 32 % 0 mm
18:31 -12.3 °C -20.9 °C 34496.6 hPa WSW 6 km/h 6 km/h 33 % 0 mm
18:36 -12.4 °C -21 °C 34533.8 hPa SSW 6.3 km/h   33 % 0 mm
18:41 -12.3 °C -20.9 °C 34533.8 hPa WNW 3.1 km/h   33 % 0 mm
18:46 -12.4 °C -21 °C 34533.8 hPa WNW 3.1 km/h   33 % 0 mm
18:51 -12.5 °C -21.1 °C 34533.8 hPa WSW 6 km/h 6 km/h 33 % 0 mm
18:56 -12.5 °C -21.1 °C 34533.8 hPa SSW 3.1 km/h   33 % 0 mm
19:01 -12.4 °C -21.1 °C 34533.8 hPa SW 9 km/h 9 km/h 33 % 0 mm
19:05 -15.6 °C -21.3 °C 34533.8 hPa Calm     47 % 0 mm
19:06 -12.5 °C -21.1 °C 34533.8 hPa SW 6.8 km/h 6.8 km/h 33 % 0 mm
19:11 -12.6 °C -21.2 °C 34533.8 hPa West 6.3 km/h 6.3 km/h 33 % 0 mm
19:15 -15.7 °C -21.4 °C 34533.8 hPa Calm     47 % 0 mm
19:16 -12.7 °C -21.3 °C 34533.8 hPa West 5.1 km/h 5.1 km/h 33 % 0 mm
19:17 -12.7 °C -21.3 °C 34533.8 hPa West 6 km/h 6 km/h 33 % 0 mm
19:22 -12.8 °C -21.3 °C 34533.8 hPa WNW 4.2 km/h 4.2 km/h 33 % 0 mm
19:25 -15.8 °C -21.3 °C 34533.8 hPa WNW 2.6 km/h 2.6 km/h 48 % 0 mm
19:27 -12.7 °C -21.3 °C 34533.8 hPa WNW 3.7 km/h 3.7 km/h 33 % 0 mm
19:32 -12.8 °C -21.3 °C 34533.8 hPa WNW 3.1 km/h 3.1 km/h 33 % 0 mm
19:35 -15.9 °C -21.4 °C 34533.8 hPa Calm   2.6 km/h 48 % 0 mm
19:37 -12.8 °C -21.3 °C 34533.8 hPa WNW 3.1 km/h   33 % 0 mm
19:42 -12.8 °C -21.3 °C 34533.8 hPa Calm     33 % 0 mm
19:45 -15.8 °C -21.3 °C 34533.8 hPa West 2.6 km/h 5.1 km/h 48 % 0 mm
19:47 -12.9 °C -21.4 °C 34533.8 hPa NNW 3.7 km/h 3.7 km/h 33 % 0 mm
19:52 -12.9 °C -21.5 °C 34533.8 hPa WNW 3.1 km/h 3.1 km/h 33 % 0 mm
19:55 -15.8 °C -21.3 °C 34533.8 hPa Calm   2.6 km/h 48 % 0 mm
19:57 -12.9 °C -21.4 °C 34533.8 hPa Calm     33 % 0 mm
20:02 -12.8 °C -21.4 °C 34533.8 hPa WNW 3.1 km/h   33 % 0 mm
20:05 -15.8 °C -21.2 °C 34533.8 hPa NE 2.6 km/h 5.1 km/h 49 % 0 mm
20:07 -12.8 °C -21.4 °C 34533.8 hPa Calm     33 % 0 mm
20:12 -12.9 °C -21.2 °C 34533.8 hPa WNW 3.1 km/h 3.1 km/h 34 % 0 mm
20:15 -15.7 °C -21.2 °C 34533.8 hPa NE 2.6 km/h 5.1 km/h 49 % 0 mm
20:17 -13.1 °C -21.4 °C 34533.8 hPa Calm     34 % 0 mm
20:22 -13.2 °C -21.6 °C 34533.8 hPa West 6 km/h 6 km/h 34 % 0 mm
20:25 -15.8 °C -21.4 °C 34533.8 hPa Calm   2.6 km/h 48 % 0 mm
20:27 -13.2 °C -21.6 °C 34533.8 hPa West 5.1 km/h   34 % 0 mm
20:32 -13.3 °C -21.6 °C 34533.8 hPa Calm     34 % 0 mm
20:35 -15.9 °C -21.4 °C 34533.8 hPa Calm   2.6 km/h 48 % 0 mm
20:37 -13.4 °C -21.7 °C 34533.8 hPa Calm     34 % 0 mm
20:42 -13.6 °C -21.8 °C 34533.8 hPa Calm     34 % 0 mm
20:45 -15.9 °C -21.4 °C 34533.8 hPa WNW 2.6 km/h 5.1 km/h 48 % 0 mm
20:47 -13.6 °C -21.8 °C 34533.8 hPa WSW 6 km/h 6 km/h 34 % 0 mm
20:52 -13.6 °C -21.8 °C 34533.8 hPa Calm     34 % 0 mm
20:55 -16 °C -21.6 °C 34533.8 hPa WNW 2.6 km/h 5.1 km/h 48 % 0 mm
20:57 -13.6 °C -21.9 °C 34533.8 hPa NW 3.1 km/h 3.1 km/h 34 % 0 mm
21:02 -13.7 °C -21.8 °C 34533.8 hPa North 6 km/h 6 km/h 35 % 0 mm
21:05 -16.1 °C -21.6 °C 34533.8 hPa WNW 2.6 km/h 5.1 km/h 48 % 0 mm
21:07 -13.8 °C -21.8 °C 34533.8 hPa NNW 3.7 km/h 3.7 km/h 35 % 0 mm
21:12 -13.8 °C -21.8 °C 34533.8 hPa North 6 km/h 6 km/h 35 % 0 mm
21:15 -16.2 °C -21.8 °C 34533.8 hPa West 2.6 km/h 5.1 km/h 48 % 0 mm
21:17 -13.9 °C -21.9 °C 34533.8 hPa ENE 6 km/h 6 km/h 35 % 0 mm
21:22 -13.9 °C -21.9 °C 34533.8 hPa Calm     35 % 0 mm
21:25 -16.2 °C -21.6 °C 34533.8 hPa West 2.6 km/h 7.7 km/h 49 % 0 mm
21:27 -13.9 °C -21.8 °C 34533.8 hPa ENE 3.7 km/h   36 % 0 mm
21:32 -13.9 °C -21.8 °C 34533.8 hPa ENE 3.1 km/h 3.1 km/h 36 % 0 mm
21:35 -16.2 °C -21.6 °C 34533.8 hPa West 2.6 km/h 5.1 km/h 49 % 0 mm
21:37 -14.1 °C -21.8 °C 34533.8 hPa East 6 km/h 6 km/h 36 % 0 mm
21:42 -14.1 °C -21.7 °C 34533.8 hPa East 3.1 km/h   37 % 0 mm
21:45 -16 °C -21.4 °C 34533.8 hPa West 2.6 km/h 7.7 km/h 49 % 0 mm
21:47 -14.1 °C -21.7 °C 34533.8 hPa NE 3.7 km/h 3.7 km/h 37 % 0 mm
21:52 -14.2 °C -21.8 °C 34533.8 hPa NE 6 km/h 6 km/h 37 % 0 mm
21:55 -16 °C -21.4 °C 34533.8 hPa Calm   7.7 km/h 49 % 0 mm
21:57 -14.3 °C -21.9 °C 34533.8 hPa Calm     37 % 0 mm
22:02 -14.4 °C -21.9 °C 34533.8 hPa Calm     37 % 0 mm
22:05 -16.1 °C -21.3 °C 34533.8 hPa WNW 2.6 km/h 5.1 km/h 50 % 0 mm
22:07 -14.4 °C -21.8 °C 34533.8 hPa NNE 3.1 km/h 3.1 km/h 38 % 0 mm
22:12 -14.4 °C -21.8 °C 34533.8 hPa Calm     38 % 0 mm
22:15 -16.1 °C -21.4 °C 34533.8 hPa West 2.6 km/h 5.1 km/h 49 % 0 mm
22:17 -14.4 °C -21.8 °C 34533.8 hPa Calm     38 % 0 mm
22:22 -14.5 °C -21.7 °C 34533.8 hPa ENE 4.2 km/h   39 % 0 mm
22:25 -15.9 °C -21.3 °C 34496.6 hPa NW 2.6 km/h 5.1 km/h 49 % 0 mm
22:27 -14.6 °C -21.7 °C 34533.8 hPa NE 3.7 km/h 3.7 km/h 39 % 0 mm
22:32 -14.6 °C -21.6 °C 34533.8 hPa NE 3.1 km/h   40 % 0 mm
22:35 -15.9 °C -21.3 °C 34496.6 hPa NNE 2.6 km/h 7.7 km/h 49 % 0 mm
22:37 -14.7 °C -21.7 °C 34533.8 hPa NE 3.1 km/h   40 % 0 mm
22:42 -14.8 °C -21.8 °C 34533.8 hPa Calm     40 % 0 mm
22:45 -16.1 °C -21.4 °C 34533.8 hPa Calm     49 % 0 mm
22:47 -14.8 °C -21.6 °C 34533.8 hPa Calm     41 % 0 mm
22:52 -14.9 °C -21.7 °C 34567.7 hPa Calm     41 % 0 mm
22:55 -16.1 °C -21.5 °C 34496.6 hPa NNW 2.6 km/h 5.1 km/h 49 % 0 mm
22:57 -15 °C -21.8 °C 34567.7 hPa Calm     41 % 0 mm
23:02 -15.1 °C -21.7 °C 34567.7 hPa Calm     42 % 0 mm
23:05 -16.1 °C -21.3 °C 34496.6 hPa Calm   5.1 km/h 50 % 0 mm
23:07 -15.2 °C -21.8 °C 34533.8 hPa Calm     42 % 0 mm
23:12 -15.3 °C -21.8 °C 34533.8 hPa Calm     42 % 0 mm
23:15 -16.2 °C -21.4 °C 34533.8 hPa NNW 2.6 km/h 5.1 km/h 50 % 0 mm
23:17 -15.3 °C -21.8 °C 34533.8 hPa WSW 3.1 km/h 3.7 km/h 42 % 0 mm
23:22 -15.3 °C -21.9 °C 34533.8 hPa WSW 6.3 km/h 6.3 km/h 42 % 0 mm
23:25 -16.3 °C -21.6 °C 34533.8 hPa Calm   5.1 km/h 50 % 0 mm
23:27 -15.3 °C -21.9 °C 34533.8 hPa SW 6 km/h 6 km/h 42 % 0 mm
23:32 -15.4 °C -21.9 °C 34533.8 hPa SW 6.3 km/h 6.3 km/h 42 % 0 mm
23:37 -15.4 °C -21.9 °C 34533.8 hPa WSW 6 km/h 6.3 km/h 42 % 0 mm
23:42 -15.4 °C -21.8 °C 34533.8 hPa WSW 3.1 km/h   43 % 0 mm
23:45 -16.6 °C -21.8 °C 34496.6 hPa West 2.6 km/h 2.6 km/h 50 % 0 mm
23:47 -15.4 °C -21.8 °C 34533.8 hPa WSW 4.2 km/h   43 % 0 mm
23:52 -15.4 °C -21.8 °C 34533.8 hPa SW 6 km/h 6 km/h 43 % 0 mm
23:55 -16.5 °C -21.7 °C 34533.8 hPa West 2.6 km/h 5.1 km/h 50 % 0 mm
23:57 -15.4 °C -21.6 °C 34533.8 hPa Calm     44 % 0 mm
Meteo Sesrovires
Elogis d' Weather Underground - 3.75 mb

Guio original per  Jim McMurry - jmcmurry@mwt.net Adaptat per a la plantilla per  Wim van der Kuil - Leuven-Template.eu

Trobareu la nostra informacio del temps tambe a:

Weather Underground

AWEKAS